Tracer — PHAC — position and weather

sailwx.info

Track history (hours):
 
Tides and Currents Weather Stations Pressure Air Temp Water Temp Dewpoint Dewpoint Depression Visibility Wind Speed Wind Dir Waves Ship Positions

Tracer

Last reported at 2016-May-01 04:32 UTC. Time now 2016-May-01 06:05 UTC.
Position N 38°21' E 015°15'.

Length 101 m; beam 20 m.

Type: Cargo ship. MMSI: 245949000.

Date/timePositionNaut miles runAvg speedWind from/ knotsBaromVisibWave heightAir tempDewpointWater temp
2016-May-01 04:32N 38°21' E 015°15'1414.2
2016-May-01 03:32N 38°20' E 015°33'7 7.5
2016-May-01 02:33N 38°14' E 015°37'1514.5
2016-May-01 01:33N 37°59' E 015°37'3712.5
2016-Apr-30 22:33N 38°03' E 016°24'45511.9
2016-Apr-29 08:15N 45°06' E 012°42'1014.4
2016-Apr-29 07:33N 45°11' E 012°29'9 9.3
2016-Apr-29 06:33N 45°13' E 012°16'0 0.3
2016-Apr-29 05:32N 45°13' E 012°16'0 0.0
2016-Apr-29 04:32N 45°13' E 012°16'0 0.0
2016-Apr-29 03:32N 45°13' E 012°16'0 0.0
2016-Apr-29 02:32N 45°13' E 012°16'0 0.0
2016-Apr-29 01:32N 45°13' E 012°16'0 0.0
2016-Apr-29 00:29N 45°13' E 012°16'0 0.0
2016-Apr-28 23:32N 45°13' E 012°16'0 0.0
2016-Apr-28 22:32N 45°13' E 012°16'0 0.0
2016-Apr-28 21:32N 45°13' E 012°16'0 0.0
2016-Apr-28 20:32N 45°13' E 012°16'0 0.0
2016-Apr-28 19:32N 45°13' E 012°16'0 0.0
2016-Apr-28 18:32N 45°13' E 012°16'0 0.0
2016-Apr-28 17:32N 45°13' E 012°16'0 0.0
2016-Apr-28 16:32N 45°13' E 012°16'0 0.0
2016-Apr-28 15:29N 45°13' E 012°16'0 0.0
2016-Apr-28 14:32N 45°13' E 012°16'0 0.0
2016-Apr-28 13:23N 45°13' E 012°16'0 0.0
2016-Apr-28 12:32N 45°13' E 012°16'0 0.0
2016-Apr-28 11:26N 45°13' E 012°16'0 0.0
2016-Apr-28 10:32N 45°13' E 012°16'0 0.0
2016-Apr-28 09:29N 45°13' E 012°16'0 0.0
2016-Apr-28 08:32N 45°13' E 012°16'0 0.0
2016-Apr-28 07:31N 45°13' E 012°16'0 0.0
2016-Apr-28 06:31N 45°13' E 012°16'1 0.8
2016-Apr-28 05:33N 45°13' E 012°16'4 3.6
2016-Apr-28 04:33N 45°14' E 012°22'1 1.3
2016-Apr-28 03:33N 45°14' E 012°23'0 0.1
2016-Apr-28 02:33N 45°14' E 012°23'0 0.0
2016-Apr-28 01:33N 45°14' E 012°23'0 0.0
2016-Apr-28 00:33N 45°14' E 012°23'0 0.0
2016-Apr-27 23:33N 45°14' E 012°23'0 0.0
2016-Apr-27 22:33N 45°14' E 012°23'0 0.0
2016-Apr-27 21:33N 45°14' E 012°23'0 0.1
2016-Apr-27 20:33N 45°14' E 012°23'1313.0
2016-Apr-27 19:32N 45°20' E 012°40'  
2016-Apr-21 19:33N 38°01' E 015°35'1514.6
2016-Apr-21 18:33N 38°15' E 015°38'1312.7
2016-Apr-21 17:33N 38°26' E 015°30'1515.4
2016-Apr-21 16:33N 38°37' E 015°17'11315.3
2016-Apr-21 09:08N 39°54' E 013°28'  
Track history (hours):
 
Tides and Currents Weather Stations Pressure Air Temp Water Temp Dewpoint Dewpoint Depression Visibility Wind Speed Wind Dir Waves Ship Positions

Tracer

Last reported at 2016-May-01 04:32 UTC. Time now 2016-May-01 06:05 UTC.
Position N 38°21' E 015°15'.

Length 101 m; beam 20 m.

Type: Cargo ship. MMSI: 245949000.

Date/timePositionNaut miles runAvg speedWind from/ knotsBaromVisibWave heightAir tempDewpointWater temp
2016-May-01 04:32N 38°21' E 015°15'1414.2
2016-May-01 03:32N 38°20' E 015°33'7 7.5
2016-May-01 02:33N 38°14' E 015°37'1514.5
2016-May-01 01:33N 37°59' E 015°37'3712.5
2016-Apr-30 22:33N 38°03' E 016°24'45511.9
2016-Apr-29 08:15N 45°06' E 012°42'1014.4
2016-Apr-29 07:33N 45°11' E 012°29'9 9.3
2016-Apr-29 06:33N 45°13' E 012°16'0 0.3
2016-Apr-29 05:32N 45°13' E 012°16'0 0.0
2016-Apr-29 04:32N 45°13' E 012°16'0 0.0
2016-Apr-29 03:32N 45°13' E 012°16'0 0.0
2016-Apr-29 02:32N 45°13' E 012°16'0 0.0
2016-Apr-29 01:32N 45°13' E 012°16'0 0.0
2016-Apr-29 00:29N 45°13' E 012°16'0 0.0
2016-Apr-28 23:32N 45°13' E 012°16'0 0.0
2016-Apr-28 22:32N 45°13' E 012°16'0 0.0
2016-Apr-28 21:32N 45°13' E 012°16'0 0.0
2016-Apr-28 20:32N 45°13' E 012°16'0 0.0
2016-Apr-28 19:32N 45°13' E 012°16'0 0.0
2016-Apr-28 18:32N 45°13' E 012°16'0 0.0
2016-Apr-28 17:32N 45°13' E 012°16'0 0.0
2016-Apr-28 16:32N 45°13' E 012°16'0 0.0
2016-Apr-28 15:29N 45°13' E 012°16'0 0.0
2016-Apr-28 14:32N 45°13' E 012°16'0 0.0
2016-Apr-28 13:23N 45°13' E 012°16'0 0.0
2016-Apr-28 12:32N 45°13' E 012°16'0 0.0
2016-Apr-28 11:26N 45°13' E 012°16'0 0.0
2016-Apr-28 10:32N 45°13' E 012°16'0 0.0
2016-Apr-28 09:29N 45°13' E 012°16'0 0.0
2016-Apr-28 08:32N 45°13' E 012°16'0 0.0
2016-Apr-28 07:31N 45°13' E 012°16'0 0.0
2016-Apr-28 06:31N 45°13' E 012°16'1 0.8
2016-Apr-28 05:33N 45°13' E 012°16'4 3.6
2016-Apr-28 04:33N 45°14' E 012°22'1 1.3
2016-Apr-28 03:33N 45°14' E 012°23'0 0.1
2016-Apr-28 02:33N 45°14' E 012°23'0 0.0
2016-Apr-28 01:33N 45°14' E 012°23'0 0.0
2016-Apr-28 00:33N 45°14' E 012°23'0 0.0
2016-Apr-27 23:33N 45°14' E 012°23'0 0.0
2016-Apr-27 22:33N 45°14' E 012°23'0 0.0
2016-Apr-27 21:33N 45°14' E 012°23'0 0.1
2016-Apr-27 20:33N 45°14' E 012°23'1313.0
2016-Apr-27 19:32N 45°20' E 012°40'  
2016-Apr-21 19:33N 38°01' E 015°35'1514.6
2016-Apr-21 18:33N 38°15' E 015°38'1312.7
2016-Apr-21 17:33N 38°26' E 015°30'1515.4
2016-Apr-21 16:33N 38°37' E 015°17'11315.3
2016-Apr-21 09:08N 39°54' E 013°28'  

Dump ship's entire track history